sensor_id;sensor_type;location;lat;lon;timestamp;P1;durP1;ratioP1;P2;durP2;ratioP2
52878;SDS011;38747;53.140;6.498;2022-12-18T00:01:35;61.90;;;18.17;;
52878;SDS011;38747;53.140;6.498;2022-12-18T00:04:04;61.03;;;19.07;;
52878;SDS011;38747;53.140;6.498;2022-12-18T00:06:31;59.00;;;19.77;;
52878;SDS011;38747;53.140;6.498;2022-12-18T00:08:58;62.72;;;19.77;;
52878;SDS011;38747;53.140;6.498;2022-12-18T00:11:25;64.60;;;19.52;;
52878;SDS011;38747;53.140;6.498;2022-12-18T00:13:53;60.78;;;18.83;;
52878;SDS011;38747;53.140;6.498;2022-12-18T00:16:21;68.33;;;21.77;;
52878;SDS011;38747;53.140;6.498;2022-12-18T00:18:52;66.68;;;19.33;;
52878;SDS011;38747;53.140;6.498;2022-12-18T00:21:19;62.20;;;19.00;;
52878;SDS011;38747;53.140;6.498;2022-12-18T00:23:46;66.53;;;19.40;;
52878;SDS011;38747;53.140;6.498;2022-12-18T00:26:14;62.17;;;18.95;;
52878;SDS011;38747;53.140;6.498;2022-12-18T00:28:45;62.13;;;19.10;;
52878;SDS011;38747;53.140;6.498;2022-12-18T00:31:12;63.47;;;21.20;;
52878;SDS011;38747;53.140;6.498;2022-12-18T00:33:43;61.42;;;19.90;;
52878;SDS011;38747;53.140;6.498;2022-12-18T00:38:39;63.17;;;18.77;;
52878;SDS011;38747;53.140;6.498;2022-12-18T00:41:05;65.70;;;19.52;;
52878;SDS011;38747;53.140;6.498;2022-12-18T00:43:31;59.65;;;18.77;;
52878;SDS011;38747;53.140;6.498;2022-12-18T00:45:57;59.90;;;19.70;;
52878;SDS011;38747;53.140;6.498;2022-12-18T00:48:22;52.13;;;18.27;;
52878;SDS011;38747;53.140;6.498;2022-12-18T00:50:48;55.77;;;18.30;;
52878;SDS011;38747;53.140;6.498;2022-12-18T00:53:15;50.50;;;17.15;;
52878;SDS011;38747;53.140;6.498;2022-12-18T00:55:41;56.72;;;18.00;;
52878;SDS011;38747;53.140;6.498;2022-12-18T00:58:07;50.50;;;16.70;;
52878;SDS011;38747;53.140;6.498;2022-12-18T01:00:34;57.33;;;17.92;;
52878;SDS011;38747;53.140;6.498;2022-12-18T01:03:00;63.00;;;19.58;;
52878;SDS011;38747;53.140;6.498;2022-12-18T01:05:26;53.37;;;17.83;;
52878;SDS011;38747;53.140;6.498;2022-12-18T01:07:52;56.90;;;17.85;;
52878;SDS011;38747;53.140;6.498;2022-12-18T01:10:18;59.35;;;18.92;;
52878;SDS011;38747;53.140;6.498;2022-12-18T01:12:44;58.63;;;18.92;;
52878;SDS011;38747;53.140;6.498;2022-12-18T01:15:10;59.20;;;18.10;;
52878;SDS011;38747;53.140;6.498;2022-12-18T01:17:37;50.30;;;17.23;;
52878;SDS011;38747;53.140;6.498;2022-12-18T01:20:03;51.63;;;17.67;;
52878;SDS011;38747;53.140;6.498;2022-12-18T01:22:30;50.50;;;17.55;;
52878;SDS011;38747;53.140;6.498;2022-12-18T01:24:55;53.10;;;16.95;;
52878;SDS011;38747;53.140;6.498;2022-12-18T01:27:21;54.50;;;17.73;;
52878;SDS011;38747;53.140;6.498;2022-12-18T01:29:46;51.93;;;17.70;;
52878;SDS011;38747;53.140;6.498;2022-12-18T01:32:12;56.88;;;17.63;;
52878;SDS011;38747;53.140;6.498;2022-12-18T01:34:38;57.37;;;19.27;;
52878;SDS011;38747;53.140;6.498;2022-12-18T01:37:04;59.85;;;19.27;;
52878;SDS011;38747;53.140;6.498;2022-12-18T01:39:30;59.60;;;18.92;;
52878;SDS011;38747;53.140;6.498;2022-12-18T01:41:57;60.33;;;17.43;;
52878;SDS011;38747;53.140;6.498;2022-12-18T01:50:13;54.47;;;17.27;;
52878;SDS011;38747;53.140;6.498;2022-12-18T01:52:41;51.08;;;16.83;;
52878;SDS011;38747;53.140;6.498;2022-12-18T01:55:09;54.90;;;18.00;;
52878;SDS011;38747;53.140;6.498;2022-12-18T01:57:37;52.83;;;17.40;;
52878;SDS011;38747;53.140;6.498;2022-12-18T02:00:06;55.30;;;17.85;;
52878;SDS011;38747;53.140;6.498;2022-12-18T02:02:37;53.88;;;16.77;;
52878;SDS011;38747;53.140;6.498;2022-12-18T02:05:05;53.85;;;17.52;;
52878;SDS011;38747;53.140;6.498;2022-12-18T02:07:35;49.63;;;16.73;;
52878;SDS011;38747;53.140;6.498;2022-12-18T02:10:27;55.80;;;17.10;;
52878;SDS011;38747;53.140;6.498;2022-12-18T02:15:49;53.78;;;18.02;;
52878;SDS011;38747;53.140;6.498;2022-12-18T02:18:33;59.50;;;17.63;;
52878;SDS011;38747;53.140;6.498;2022-12-18T02:24:14;58.42;;;18.17;;
52878;SDS011;38747;53.140;6.498;2022-12-18T02:26:53;51.47;;;16.83;;
52878;SDS011;38747;53.140;6.498;2022-12-18T02:29:27;55.67;;;17.20;;
52878;SDS011;38747;53.140;6.498;2022-12-18T02:31:58;57.53;;;18.08;;
52878;SDS011;38747;53.140;6.498;2022-12-18T02:34:25;56.97;;;17.30;;
52878;SDS011;38747;53.140;6.498;2022-12-18T02:36:54;55.55;;;18.10;;
52878;SDS011;38747;53.140;6.498;2022-12-18T02:39:21;59.85;;;19.85;;
52878;SDS011;38747;53.140;6.498;2022-12-18T02:41:50;61.35;;;18.45;;
52878;SDS011;38747;53.140;6.498;2022-12-18T02:44:16;57.13;;;19.50;;
52878;SDS011;38747;53.140;6.498;2022-12-18T02:46:42;57.40;;;18.63;;
52878;SDS011;38747;53.140;6.498;2022-12-18T02:57:15;62.37;;;18.90;;
52878;SDS011;38747;53.140;6.498;2022-12-18T03:00:08;61.17;;;19.08;;
52878;SDS011;38747;53.140;6.498;2022-12-18T03:05:50;67.60;;;19.00;;
52878;SDS011;38747;53.140;6.498;2022-12-18T03:08:50;63.70;;;19.23;;
52878;SDS011;38747;53.140;6.498;2022-12-18T03:11:23;57.67;;;18.30;;
52878;SDS011;38747;53.140;6.498;2022-12-18T03:14:10;58.58;;;19.20;;
52878;SDS011;38747;53.140;6.498;2022-12-18T03:16:39;62.47;;;21.45;;
52878;SDS011;38747;53.140;6.498;2022-12-18T03:19:07;59.43;;;18.60;;
52878;SDS011;38747;53.140;6.498;2022-12-18T03:21:43;67.63;;;18.90;;
52878;SDS011;38747;53.140;6.498;2022-12-18T03:24:17;58.65;;;20.00;;
52878;SDS011;38747;53.140;6.498;2022-12-18T03:26:44;66.80;;;20.67;;
52878;SDS011;38747;53.140;6.498;2022-12-18T03:29:17;59.45;;;19.63;;
52878;SDS011;38747;53.140;6.498;2022-12-18T03:31:52;59.33;;;19.73;;
52878;SDS011;38747;53.140;6.498;2022-12-18T03:34:31;66.40;;;20.23;;
52878;SDS011;38747;53.140;6.498;2022-12-18T03:37:02;53.72;;;19.20;;
52878;SDS011;38747;53.140;6.498;2022-12-18T03:39:28;57.22;;;19.02;;
52878;SDS011;38747;53.140;6.498;2022-12-18T03:44:50;63.80;;;19.80;;
52878;SDS011;38747;53.140;6.498;2022-12-18T03:50:20;61.47;;;19.25;;
52878;SDS011;38747;53.140;6.498;2022-12-18T03:53:00;63.92;;;19.15;;
52878;SDS011;38747;53.140;6.498;2022-12-18T03:55:51;52.70;;;18.27;;
52878;SDS011;38747;53.140;6.498;2022-12-18T03:58:19;50.63;;;18.65;;
52878;SDS011;38747;53.140;6.498;2022-12-18T04:00:51;54.38;;;17.67;;
52878;SDS011;38747;53.140;6.498;2022-12-18T04:03:19;59.13;;;19.50;;
52878;SDS011;38747;53.140;6.498;2022-12-18T04:05:46;55.55;;;18.75;;
52878;SDS011;38747;53.140;6.498;2022-12-18T04:08:15;52.37;;;17.87;;
52878;SDS011;38747;53.140;6.498;2022-12-18T04:10:41;62.30;;;19.15;;
52878;SDS011;38747;53.140;6.498;2022-12-18T04:13:07;60.03;;;18.92;;
52878;SDS011;38747;53.140;6.498;2022-12-18T04:15:34;50.70;;;18.37;;
52878;SDS011;38747;53.140;6.498;2022-12-18T04:18:02;55.92;;;18.45;;
52878;SDS011;38747;53.140;6.498;2022-12-18T04:20:27;53.00;;;18.48;;
52878;SDS011;38747;53.140;6.498;2022-12-18T04:22:53;55.53;;;17.70;;
52878;SDS011;38747;53.140;6.498;2022-12-18T04:25:19;52.08;;;19.17;;
52878;SDS011;38747;53.140;6.498;2022-12-18T04:27:44;54.53;;;18.00;;
52878;SDS011;38747;53.140;6.498;2022-12-18T04:30:10;59.40;;;18.65;;
52878;SDS011;38747;53.140;6.498;2022-12-18T04:32:36;54.70;;;19.33;;
52878;SDS011;38747;53.140;6.498;2022-12-18T04:35:02;53.88;;;19.23;;
52878;SDS011;38747;53.140;6.498;2022-12-18T04:37:29;61.88;;;18.30;;
52878;SDS011;38747;53.140;6.498;2022-12-18T04:39:55;53.53;;;18.13;;
52878;SDS011;38747;53.140;6.498;2022-12-18T04:42:20;49.95;;;17.05;;
52878;SDS011;38747;53.140;6.498;2022-12-18T04:44:46;54.13;;;18.40;;
52878;SDS011;38747;53.140;6.498;2022-12-18T04:47:12;53.65;;;19.02;;
52878;SDS011;38747;53.140;6.498;2022-12-18T04:49:37;51.67;;;17.93;;
52878;SDS011;38747;53.140;6.498;2022-12-18T04:52:03;55.67;;;17.07;;
52878;SDS011;38747;53.140;6.498;2022-12-18T04:54:29;68.07;;;19.07;;
52878;SDS011;38747;53.140;6.498;2022-12-18T04:56:54;50.05;;;18.45;;
52878;SDS011;38747;53.140;6.498;2022-12-18T04:59:20;51.27;;;17.17;;
52878;SDS011;38747;53.140;6.498;2022-12-18T05:01:45;54.43;;;18.00;;
52878;SDS011;38747;53.140;6.498;2022-12-18T05:04:11;62.83;;;19.27;;
52878;SDS011;38747;53.140;6.498;2022-12-18T05:06:36;57.13;;;18.50;;
52878;SDS011;38747;53.140;6.498;2022-12-18T05:09:02;54.60;;;18.03;;
52878;SDS011;38747;53.140;6.498;2022-12-18T05:11:28;50.27;;;17.77;;
52878;SDS011;38747;53.140;6.498;2022-12-18T05:13:53;59.22;;;19.70;;
52878;SDS011;38747;53.140;6.498;2022-12-18T05:16:20;54.13;;;17.23;;
52878;SDS011;38747;53.140;6.498;2022-12-18T05:18:46;62.55;;;18.92;;
52878;SDS011;38747;53.140;6.498;2022-12-18T05:21:12;49.40;;;16.67;;
52878;SDS011;38747;53.140;6.498;2022-12-18T05:23:37;51.00;;;17.20;;
52878;SDS011;38747;53.140;6.498;2022-12-18T05:26:04;51.43;;;17.47;;
52878;SDS011;38747;53.140;6.498;2022-12-18T05:28:31;53.85;;;18.60;;
52878;SDS011;38747;53.140;6.498;2022-12-18T05:30:59;53.38;;;18.08;;
52878;SDS011;38747;53.140;6.498;2022-12-18T05:33:28;47.47;;;18.40;;
52878;SDS011;38747;53.140;6.498;2022-12-18T05:35:56;50.42;;;17.70;;
52878;SDS011;38747;53.140;6.498;2022-12-18T05:38:23;52.17;;;19.10;;
52878;SDS011;38747;53.140;6.498;2022-12-18T05:40:50;48.17;;;16.75;;
52878;SDS011;38747;53.140;6.498;2022-12-18T05:43:17;54.55;;;18.05;;
52878;SDS011;38747;53.140;6.498;2022-12-18T05:45:49;50.17;;;17.77;;
52878;SDS011;38747;53.140;6.498;2022-12-18T05:48:16;52.08;;;17.50;;
52878;SDS011;38747;53.140;6.498;2022-12-18T05:50:43;54.15;;;18.80;;
52878;SDS011;38747;53.140;6.498;2022-12-18T05:53:13;53.10;;;18.00;;
52878;SDS011;38747;53.140;6.498;2022-12-18T05:55:41;50.13;;;17.67;;
52878;SDS011;38747;53.140;6.498;2022-12-18T05:58:08;47.10;;;16.53;;
52878;SDS011;38747;53.140;6.498;2022-12-18T06:00:36;50.03;;;16.73;;
52878;SDS011;38747;53.140;6.498;2022-12-18T06:03:06;51.08;;;16.50;;
52878;SDS011;38747;53.140;6.498;2022-12-18T06:05:37;49.13;;;17.65;;
52878;SDS011;38747;53.140;6.498;2022-12-18T06:08:04;48.28;;;17.00;;
52878;SDS011;38747;53.140;6.498;2022-12-18T06:10:30;47.33;;;16.00;;
52878;SDS011;38747;53.140;6.498;2022-12-18T06:12:56;45.80;;;15.32;;
52878;SDS011;38747;53.140;6.498;2022-12-18T06:15:22;43.20;;;15.23;;
52878;SDS011;38747;53.140;6.498;2022-12-18T06:17:47;53.40;;;17.40;;
52878;SDS011;38747;53.140;6.498;2022-12-18T06:20:13;47.43;;;16.37;;
52878;SDS011;38747;53.140;6.498;2022-12-18T06:22:38;45.53;;;15.25;;
52878;SDS011;38747;53.140;6.498;2022-12-18T06:25:04;51.23;;;16.87;;
52878;SDS011;38747;53.140;6.498;2022-12-18T06:27:31;47.97;;;15.60;;
52878;SDS011;38747;53.140;6.498;2022-12-18T06:29:58;41.55;;;14.75;;
52878;SDS011;38747;53.140;6.498;2022-12-18T06:32:24;45.08;;;15.48;;
52878;SDS011;38747;53.140;6.498;2022-12-18T06:34:50;48.25;;;15.13;;
52878;SDS011;38747;53.140;6.498;2022-12-18T06:37:16;45.53;;;14.77;;
52878;SDS011;38747;53.140;6.498;2022-12-18T06:39:42;41.22;;;15.00;;
52878;SDS011;38747;53.140;6.498;2022-12-18T06:42:07;48.23;;;14.57;;
52878;SDS011;38747;53.140;6.498;2022-12-18T06:44:33;43.07;;;14.07;;
52878;SDS011;38747;53.140;6.498;2022-12-18T06:46:58;42.42;;;15.38;;
52878;SDS011;38747;53.140;6.498;2022-12-18T06:49:24;37.13;;;13.77;;
52878;SDS011;38747;53.140;6.498;2022-12-18T06:51:50;37.65;;;14.35;;
52878;SDS011;38747;53.140;6.498;2022-12-18T06:54:16;41.00;;;14.60;;
52878;SDS011;38747;53.140;6.498;2022-12-18T06:56:44;38.83;;;15.25;;
52878;SDS011;38747;53.140;6.498;2022-12-18T06:59:10;31.83;;;13.00;;
52878;SDS011;38747;53.140;6.498;2022-12-18T07:01:37;37.07;;;13.77;;
52878;SDS011;38747;53.140;6.498;2022-12-18T07:04:03;37.25;;;13.68;;
52878;SDS011;38747;53.140;6.498;2022-12-18T07:06:28;35.17;;;13.50;;
52878;SDS011;38747;53.140;6.498;2022-12-18T07:08:54;35.53;;;13.75;;
52878;SDS011;38747;53.140;6.498;2022-12-18T07:11:20;34.23;;;13.50;;
52878;SDS011;38747;53.140;6.498;2022-12-18T07:13:46;39.08;;;13.68;;
52878;SDS011;38747;53.140;6.498;2022-12-18T07:16:13;32.83;;;13.35;;
52878;SDS011;38747;53.140;6.498;2022-12-18T07:18:43;33.50;;;12.35;;
52878;SDS011;38747;53.140;6.498;2022-12-18T07:21:11;33.67;;;13.33;;
52878;SDS011;38747;53.140;6.498;2022-12-18T07:23:38;34.63;;;13.85;;
52878;SDS011;38747;53.140;6.498;2022-12-18T07:26:05;30.50;;;12.98;;
52878;SDS011;38747;53.140;6.498;2022-12-18T07:28:34;34.13;;;13.23;;
52878;SDS011;38747;53.140;6.498;2022-12-18T07:31:04;30.70;;;12.80;;
52878;SDS011;38747;53.140;6.498;2022-12-18T07:33:32;31.57;;;12.10;;
52878;SDS011;38747;53.140;6.498;2022-12-18T07:36:05;31.63;;;12.60;;
52878;SDS011;38747;53.140;6.498;2022-12-18T07:38:32;29.58;;;11.98;;
52878;SDS011;38747;53.140;6.498;2022-12-18T07:41:00;31.20;;;12.50;;
52878;SDS011;38747;53.140;6.498;2022-12-18T07:43:26;29.60;;;12.18;;
52878;SDS011;38747;53.140;6.498;2022-12-18T07:45:52;31.80;;;11.97;;
52878;SDS011;38747;53.140;6.498;2022-12-18T07:48:18;31.60;;;12.50;;
52878;SDS011;38747;53.140;6.498;2022-12-18T07:50:43;28.92;;;11.88;;
52878;SDS011;38747;53.140;6.498;2022-12-18T07:53:09;28.80;;;12.37;;
52878;SDS011;38747;53.140;6.498;2022-12-18T07:55:35;31.40;;;12.90;;
52878;SDS011;38747;53.140;6.498;2022-12-18T07:58:01;35.20;;;13.47;;
52878;SDS011;38747;53.140;6.498;2022-12-18T08:00:30;33.58;;;13.07;;
52878;SDS011;38747;53.140;6.498;2022-12-18T08:02:56;34.53;;;12.98;;
52878;SDS011;38747;53.140;6.498;2022-12-18T08:05:22;31.45;;;13.00;;
52878;SDS011;38747;53.140;6.498;2022-12-18T08:07:48;33.30;;;12.70;;
52878;SDS011;38747;53.140;6.498;2022-12-18T08:10:14;30.27;;;13.18;;
52878;SDS011;38747;53.140;6.498;2022-12-18T08:12:40;29.65;;;12.98;;
52878;SDS011;38747;53.140;6.498;2022-12-18T08:15:05;29.77;;;12.57;;
52878;SDS011;38747;53.140;6.498;2022-12-18T08:17:31;29.77;;;12.20;;
52878;SDS011;38747;53.140;6.498;2022-12-18T08:19:57;30.87;;;12.60;;
52878;SDS011;38747;53.140;6.498;2022-12-18T08:22:23;31.52;;;12.80;;
52878;SDS011;38747;53.140;6.498;2022-12-18T08:24:49;29.83;;;12.90;;
52878;SDS011;38747;53.140;6.498;2022-12-18T08:27:14;28.33;;;12.40;;
52878;SDS011;38747;53.140;6.498;2022-12-18T08:29:40;29.57;;;12.20;;
52878;SDS011;38747;53.140;6.498;2022-12-18T08:32:05;29.02;;;11.88;;
52878;SDS011;38747;53.140;6.498;2022-12-18T08:34:31;29.90;;;13.07;;
52878;SDS011;38747;53.140;6.498;2022-12-18T08:36:57;27.13;;;11.40;;
52878;SDS011;38747;53.140;6.498;2022-12-18T08:39:22;32.03;;;12.15;;
52878;SDS011;38747;53.140;6.498;2022-12-18T08:41:48;31.50;;;11.67;;
52878;SDS011;38747;53.140;6.498;2022-12-18T08:44:34;28.55;;;11.40;;
52878;SDS011;38747;53.140;6.498;2022-12-18T08:47:02;27.42;;;11.55;;
52878;SDS011;38747;53.140;6.498;2022-12-18T08:49:28;27.20;;;11.20;;
52878;SDS011;38747;53.140;6.498;2022-12-18T08:51:54;27.03;;;11.17;;
52878;SDS011;38747;53.140;6.498;2022-12-18T08:54:22;27.60;;;11.25;;
52878;SDS011;38747;53.140;6.498;2022-12-18T08:56:48;29.20;;;11.60;;
52878;SDS011;38747;53.140;6.498;2022-12-18T08:59:15;29.23;;;11.93;;
52878;SDS011;38747;53.140;6.498;2022-12-18T09:01:41;22.85;;;10.27;;
52878;SDS011;38747;53.140;6.498;2022-12-18T09:04:07;26.65;;;11.27;;
52878;SDS011;38747;53.140;6.498;2022-12-18T09:06:36;23.42;;;10.90;;
52878;SDS011;38747;53.140;6.498;2022-12-18T09:09:03;26.33;;;11.48;;
52878;SDS011;38747;53.140;6.498;2022-12-18T09:11:29;26.77;;;12.20;;
52878;SDS011;38747;53.140;6.498;2022-12-18T09:13:56;28.15;;;12.00;;
52878;SDS011;38747;53.140;6.498;2022-12-18T09:16:23;26.33;;;11.32;;
52878;SDS011;38747;53.140;6.498;2022-12-18T09:18:50;26.30;;;11.70;;
52878;SDS011;38747;53.140;6.498;2022-12-18T09:21:17;24.40;;;11.23;;
52878;SDS011;38747;53.140;6.498;2022-12-18T09:23:48;26.48;;;11.50;;
52878;SDS011;38747;53.140;6.498;2022-12-18T09:26:19;26.80;;;11.10;;
52878;SDS011;38747;53.140;6.498;2022-12-18T09:28:45;25.70;;;11.10;;
52878;SDS011;38747;53.140;6.498;2022-12-18T09:31:12;28.20;;;11.87;;
52878;SDS011;38747;53.140;6.498;2022-12-18T09:33:38;23.92;;;11.07;;
52878;SDS011;38747;53.140;6.498;2022-12-18T09:36:05;25.63;;;10.98;;
52878;SDS011;38747;53.140;6.498;2022-12-18T09:38:31;24.73;;;10.75;;
52878;SDS011;38747;53.140;6.498;2022-12-18T09:40:59;23.43;;;10.93;;
52878;SDS011;38747;53.140;6.498;2022-12-18T09:43:51;23.25;;;10.32;;
52878;SDS011;38747;53.140;6.498;2022-12-18T09:46:23;21.92;;;9.65;;
52878;SDS011;38747;53.140;6.498;2022-12-18T09:48:56;22.73;;;10.52;;
52878;SDS011;38747;53.140;6.498;2022-12-18T09:51:27;23.27;;;10.43;;
52878;SDS011;38747;53.140;6.498;2022-12-18T09:54:01;23.03;;;10.03;;
52878;SDS011;38747;53.140;6.498;2022-12-18T09:56:38;19.95;;;9.70;;
52878;SDS011;38747;53.140;6.498;2022-12-18T09:59:08;22.17;;;9.93;;
52878;SDS011;38747;53.140;6.498;2022-12-18T10:01:49;20.50;;;9.02;;
52878;SDS011;38747;53.140;6.498;2022-12-18T10:04:15;20.73;;;9.50;;
52878;SDS011;38747;53.140;6.498;2022-12-18T10:06:43;16.65;;;8.15;;
52878;SDS011;38747;53.140;6.498;2022-12-18T10:09:25;19.45;;;9.07;;
52878;SDS011;38747;53.140;6.498;2022-12-18T10:20:17;20.73;;;8.18;;
52878;SDS011;38747;53.140;6.498;2022-12-18T10:22:57;20.23;;;8.60;;
52878;SDS011;38747;53.140;6.498;2022-12-18T10:28:19;18.43;;;8.20;;
52878;SDS011;38747;53.140;6.498;2022-12-18T10:30:46;18.67;;;8.27;;
52878;SDS011;38747;53.140;6.498;2022-12-18T10:33:12;17.58;;;8.57;;
52878;SDS011;38747;53.140;6.498;2022-12-18T10:35:41;21.17;;;9.63;;
52878;SDS011;38747;53.140;6.498;2022-12-18T10:40:49;21.25;;;9.63;;
52878;SDS011;38747;53.140;6.498;2022-12-18T10:43:22;22.60;;;10.05;;
52878;SDS011;38747;53.140;6.498;2022-12-18T10:48:34;19.23;;;9.60;;
52878;SDS011;38747;53.140;6.498;2022-12-18T10:51:01;22.70;;;10.70;;
52878;SDS011;38747;53.140;6.498;2022-12-18T10:53:29;19.92;;;9.25;;
52878;SDS011;38747;53.140;6.498;2022-12-18T10:55:57;20.70;;;9.32;;
52878;SDS011;38747;53.140;6.498;2022-12-18T11:01:04;19.42;;;8.57;;
52878;SDS011;38747;53.140;6.498;2022-12-18T11:03:41;19.67;;;8.93;;
52878;SDS011;38747;53.140;6.498;2022-12-18T11:08:37;17.73;;;9.00;;
52878;SDS011;38747;53.140;6.498;2022-12-18T11:11:20;16.67;;;8.00;;
52878;SDS011;38747;53.140;6.498;2022-12-18T11:16:19;18.17;;;8.23;;
52878;SDS011;38747;53.140;6.498;2022-12-18T11:18:45;14.93;;;7.40;;
52878;SDS011;38747;53.140;6.498;2022-12-18T11:21:11;17.20;;;7.90;;
52878;SDS011;38747;53.140;6.498;2022-12-18T11:23:45;15.55;;;7.20;;
52878;SDS011;38747;53.140;6.498;2022-12-18T11:26:14;16.05;;;7.60;;
52878;SDS011;38747;53.140;6.498;2022-12-18T11:28:46;14.90;;;7.38;;
52878;SDS011;38747;53.140;6.498;2022-12-18T11:33:41;14.60;;;6.80;;
52878;SDS011;38747;53.140;6.498;2022-12-18T11:36:11;14.90;;;6.45;;
52878;SDS011;38747;53.140;6.498;2022-12-18T11:38:39;14.20;;;6.63;;
52878;SDS011;38747;53.140;6.498;2022-12-18T11:41:19;13.57;;;6.82;;
52878;SDS011;38747;53.140;6.498;2022-12-18T11:44:14;13.35;;;6.25;;
52878;SDS011;38747;53.140;6.498;2022-12-18T11:46:53;12.95;;;6.32;;
52878;SDS011;38747;53.140;6.498;2022-12-18T11:49:26;13.27;;;6.63;;
52878;SDS011;38747;53.140;6.498;2022-12-18T11:54:43;11.75;;;5.80;;
52878;SDS011;38747;53.140;6.498;2022-12-18T12:00:13;12.53;;;5.60;;
52878;SDS011;38747;53.140;6.498;2022-12-18T12:02:46;11.13;;;5.45;;
52878;SDS011;38747;53.140;6.498;2022-12-18T12:16:33;9.13;;;4.53;;
52878;SDS011;38747;53.140;6.498;2022-12-18T12:27:06;12.93;;;5.10;;
52878;SDS011;38747;53.140;6.498;2022-12-18T12:32:50;10.40;;;5.20;;
52878;SDS011;38747;53.140;6.498;2022-12-18T12:35:28;9.57;;;4.90;;
52878;SDS011;38747;53.140;6.498;2022-12-18T12:38:05;10.40;;;4.82;;
52878;SDS011;38747;53.140;6.498;2022-12-18T12:40:35;10.13;;;4.70;;
52878;SDS011;38747;53.140;6.498;2022-12-18T12:45:55;10.85;;;4.63;;
52878;SDS011;38747;53.140;6.498;2022-12-18T12:48:35;9.70;;;4.53;;
52878;SDS011;38747;53.140;6.498;2022-12-18T12:51:16;10.18;;;4.72;;
52878;SDS011;38747;53.140;6.498;2022-12-18T12:53:47;9.70;;;4.23;;
52878;SDS011;38747;53.140;6.498;2022-12-18T12:56:15;9.85;;;3.97;;
52878;SDS011;38747;53.140;6.498;2022-12-18T13:01:36;10.63;;;4.18;;
52878;SDS011;38747;53.140;6.498;2022-12-18T13:04:29;9.38;;;4.20;;
52878;SDS011;38747;53.140;6.498;2022-12-18T13:12:55;8.50;;;3.72;;
52878;SDS011;38747;53.140;6.498;2022-12-18T13:15:24;8.93;;;4.05;;
52878;SDS011;38747;53.140;6.498;2022-12-18T13:20:38;10.27;;;4.07;;
52878;SDS011;38747;53.140;6.498;2022-12-18T13:23:20;10.73;;;4.03;;
52878;SDS011;38747;53.140;6.498;2022-12-18T13:25:56;8.68;;;4.00;;
52878;SDS011;38747;53.140;6.498;2022-12-18T13:30:59;10.13;;;4.13;;
52878;SDS011;38747;53.140;6.498;2022-12-18T13:36:00;9.20;;;4.00;;
52878;SDS011;38747;53.140;6.498;2022-12-18T13:38:41;9.52;;;4.22;;
52878;SDS011;38747;53.140;6.498;2022-12-18T13:46:44;9.32;;;3.97;;
52878;SDS011;38747;53.140;6.498;2022-12-18T13:51:39;10.03;;;4.43;;
52878;SDS011;38747;53.140;6.498;2022-12-18T13:56:48;10.90;;;4.10;;
52878;SDS011;38747;53.140;6.498;2022-12-18T13:59:18;8.73;;;3.90;;
52878;SDS011;38747;53.140;6.498;2022-12-18T14:04:23;11.07;;;4.25;;
52878;SDS011;38747;53.140;6.498;2022-12-18T14:07:04;11.00;;;4.35;;
52878;SDS011;38747;53.140;6.498;2022-12-18T14:09:40;9.88;;;4.60;;
52878;SDS011;38747;53.140;6.498;2022-12-18T14:12:32;9.27;;;4.03;;
52878;SDS011;38747;53.140;6.498;2022-12-18T14:20:33;10.40;;;4.75;;
52878;SDS011;38747;53.140;6.498;2022-12-18T14:22:59;9.65;;;4.47;;
52878;SDS011;38747;53.140;6.498;2022-12-18T14:25:29;8.67;;;4.13;;
52878;SDS011;38747;53.140;6.498;2022-12-18T14:30:39;10.13;;;4.28;;
52878;SDS011;38747;53.140;6.498;2022-12-18T14:33:09;9.30;;;4.10;;
52878;SDS011;38747;53.140;6.498;2022-12-18T14:35:38;10.20;;;4.32;;
52878;SDS011;38747;53.140;6.498;2022-12-18T14:38:24;9.33;;;4.00;;
52878;SDS011;38747;53.140;6.498;2022-12-18T14:43:22;11.67;;;5.20;;
52878;SDS011;38747;53.140;6.498;2022-12-18T14:45:48;9.55;;;5.07;;
52878;SDS011;38747;53.140;6.498;2022-12-18T14:48:21;13.95;;;8.40;;
52878;SDS011;38747;53.140;6.498;2022-12-18T14:53:36;12.40;;;6.50;;
52878;SDS011;38747;53.140;6.498;2022-12-18T14:56:18;11.20;;;5.30;;
52878;SDS011;38747;53.140;6.498;2022-12-18T14:58:49;13.13;;;7.65;;
52878;SDS011;38747;53.140;6.498;2022-12-18T15:01:21;12.30;;;6.95;;
52878;SDS011;38747;53.140;6.498;2022-12-18T15:03:52;14.05;;;8.15;;
52878;SDS011;38747;53.140;6.498;2022-12-18T15:08:57;16.00;;;7.95;;
52878;SDS011;38747;53.140;6.498;2022-12-18T15:11:28;16.98;;;8.50;;
52878;SDS011;38747;53.140;6.498;2022-12-18T15:14:21;12.18;;;6.75;;
52878;SDS011;38747;53.140;6.498;2022-12-18T15:16:51;10.50;;;5.80;;
52878;SDS011;38747;53.140;6.498;2022-12-18T15:19:18;13.37;;;7.23;;
52878;SDS011;38747;53.140;6.498;2022-12-18T15:21:45;13.10;;;7.88;;
52878;SDS011;38747;53.140;6.498;2022-12-18T15:24:18;13.35;;;7.22;;
52878;SDS011;38747;53.140;6.498;2022-12-18T15:26:49;14.40;;;9.35;;
52878;SDS011;38747;53.140;6.498;2022-12-18T15:29:17;17.00;;;10.23;;
52878;SDS011;38747;53.140;6.498;2022-12-18T15:31:45;15.38;;;10.02;;
52878;SDS011;38747;53.140;6.498;2022-12-18T15:34:24;11.85;;;6.53;;
52878;SDS011;38747;53.140;6.498;2022-12-18T15:36:51;12.30;;;6.90;;
52878;SDS011;38747;53.140;6.498;2022-12-18T15:39:17;12.57;;;6.35;;
52878;SDS011;38747;53.140;6.498;2022-12-18T15:41:43;13.15;;;6.38;;
52878;SDS011;38747;53.140;6.498;2022-12-18T15:44:28;12.00;;;5.07;;
52878;SDS011;38747;53.140;6.498;2022-12-18T15:46:54;11.97;;;6.30;;
52878;SDS011;38747;53.140;6.498;2022-12-18T15:49:20;14.55;;;7.03;;
52878;SDS011;38747;53.140;6.498;2022-12-18T15:51:45;14.00;;;7.70;;
52878;SDS011;38747;53.140;6.498;2022-12-18T15:54:19;12.27;;;6.35;;
52878;SDS011;38747;53.140;6.498;2022-12-18T15:57:04;16.58;;;8.95;;
52878;SDS011;38747;53.140;6.498;2022-12-18T15:59:48;14.98;;;8.75;;
52878;SDS011;38747;53.140;6.498;2022-12-18T16:02:15;14.47;;;7.27;;
52878;SDS011;38747;53.140;6.498;2022-12-18T16:04:42;15.55;;;7.68;;
52878;SDS011;38747;53.140;6.498;2022-12-18T16:07:08;13.68;;;6.78;;
52878;SDS011;38747;53.140;6.498;2022-12-18T16:09:34;14.70;;;7.23;;
52878;SDS011;38747;53.140;6.498;2022-12-18T16:12:01;13.02;;;6.13;;
52878;SDS011;38747;53.140;6.498;2022-12-18T16:14:27;14.68;;;6.45;;
52878;SDS011;38747;53.140;6.498;2022-12-18T16:16:56;13.20;;;6.30;;
52878;SDS011;38747;53.140;6.498;2022-12-18T16:19:24;14.20;;;6.60;;
52878;SDS011;38747;53.140;6.498;2022-12-18T16:21:51;13.85;;;7.35;;
52878;SDS011;38747;53.140;6.498;2022-12-18T16:24:21;12.07;;;5.75;;
52878;SDS011;38747;53.140;6.498;2022-12-18T16:26:51;12.90;;;6.45;;
52878;SDS011;38747;53.140;6.498;2022-12-18T16:29:18;13.27;;;6.40;;
52878;SDS011;38747;53.140;6.498;2022-12-18T16:31:44;13.90;;;7.07;;
52878;SDS011;38747;53.140;6.498;2022-12-18T16:36:47;13.98;;;6.63;;
52878;SDS011;38747;53.140;6.498;2022-12-18T16:39:13;15.00;;;7.50;;
52878;SDS011;38747;53.140;6.498;2022-12-18T16:41:39;15.23;;;7.00;;
52878;SDS011;38747;53.140;6.498;2022-12-18T16:44:04;14.17;;;6.97;;
52878;SDS011;38747;53.140;6.498;2022-12-18T16:46:30;14.25;;;6.82;;
52878;SDS011;38747;53.140;6.498;2022-12-18T16:48:59;14.47;;;8.27;;
52878;SDS011;38747;53.140;6.498;2022-12-18T16:51:26;14.95;;;6.95;;
52878;SDS011;38747;53.140;6.498;2022-12-18T16:53:52;16.33;;;7.25;;
52878;SDS011;38747;53.140;6.498;2022-12-18T16:56:19;14.05;;;7.00;;